Time;durP1;ratioP1;P1;durP2;ratioP2;P2;SDS_P1;SDS_P2;PMS_P1;PMS_P2;Temp;Humidity;BMP_temperature;BMP_pressure;BME280_temperature;BME280_humidity;BME280_pressure;Samples;Min_cycle;Max_cycle;Signal;HPM_P1;HPM_P2
2022/08/13 00:00:10;;;;;;;3.90;3.60;;;19.50;93.00;;;;;;5033200;28;20410;-72
2022/08/13 00:02:37;;;;;;;5.80;3.80;;;19.60;92.80;;;;;;5033160;28;20557;-72
2022/08/13 00:05:05;;;;;;;4.33;3.20;;;19.50;92.80;;;;;;5032973;28;20993;-72
2022/08/13 00:07:31;;;;;;;3.07;2.77;;;19.50;90.40;;;;;;5033165;28;20399;-72
2022/08/13 00:09:59;;;;;;;2.63;2.43;;;19.50;90.40;;;;;;5033104;28;20441;-72
2022/08/13 00:15:20;;;;;;;2.77;2.57;;;19.40;91.60;;;;;;5033061;28;20818;-72
2022/08/13 00:17:50;;;;;;;3.80;2.60;;;19.40;91.90;;;;;;5032920;28;20455;-72
2022/08/13 00:20:18;;;;;;;2.10;2.00;;;19.50;90.30;;;;;;5033095;28;20814;-72
2022/08/13 00:22:44;;;;;;;2.40;2.20;;;19.50;87.90;;;;;;5032871;28;20433;-72
2022/08/13 00:25:10;;;;;;;3.50;3.23;;;19.50;89.20;;;;;;5032205;28;20449;-72
2022/08/13 00:27:36;;;;;;;2.50;2.30;;;19.40;89.50;;;;;;5032810;28;20629;-72
2022/08/13 00:30:05;;;;;;;2.30;2.17;;;19.40;87.30;;;;;;5032646;28;20394;-72
2022/08/13 00:32:32;;;;;;;2.93;2.33;;;19.40;87.60;;;;;;5032647;28;20476;-72
2022/08/13 00:34:59;;;;;;;2.17;1.97;;;19.40;88.30;;;;;;5032331;28;20410;-72
2022/08/13 00:37:26;;;;;;;2.30;2.10;;;19.40;86.40;;;;;;5032652;28;20420;-72
2022/08/13 00:39:53;;;;;;;3.30;2.07;;;19.40;85.60;;;;;;5032524;28;20446;-72
2022/08/13 00:42:25;;;;;;;2.37;1.73;;;19.40;84.50;;;;;;5031269;28;20496;-72
2022/08/13 00:44:51;;;;;;;3.20;2.23;;;19.40;86.70;;;;;;5032096;28;20442;-72
2022/08/13 00:50:03;;;;;;;2.40;1.87;;;19.40;89.00;;;;;;5032474;28;20398;-72
2022/08/13 00:52:32;;;;;;;14.50;2.73;;;19.30;86.80;;;;;;5031861;28;20973;-73
2022/08/13 00:55:03;;;;;;;2.87;2.47;;;19.30;86.70;;;;;;5030503;28;20406;-72
2022/08/13 00:57:29;;;;;;;2.40;2.20;;;19.30;86.70;;;;;;5032223;28;20398;-72
2022/08/13 00:59:55;;;;;;;2.57;2.37;;;19.30;86.20;;;;;;5032202;28;20459;-72
2022/08/13 01:02:23;;;;;;;3.20;2.90;;;19.30;86.50;;;;;;5032223;28;20226;-72
2022/08/13 01:04:49;;;;;;;2.60;2.10;;;19.20;86.80;;;;;;5031862;28;20450;-72
2022/08/13 01:07:15;;;;;;;8.70;2.33;;;19.20;87.10;;;;;;5032257;28;20945;-72
2022/08/13 01:09:40;;;;;;;2.90;2.57;;;19.20;88.90;;;;;;5032023;28;20163;-72
2022/08/13 01:12:09;;;;;;;2.63;2.37;;;19.20;89.50;;;;;;5030630;28;20525;-72
2022/08/13 01:14:36;;;;;;;2.33;2.13;;;19.10;89.90;;;;;;5031730;28;20247;-72
2022/08/13 01:17:04;;;;;;;3.67;2.73;;;19.10;90.10;;;;;;5032275;28;20956;-72
2022/08/13 01:19:31;;;;;;;2.10;1.90;;;19.10;90.20;;;;;;5030775;28;20540;-72
2022/08/13 01:21:59;;;;;;;3.40;3.07;;;19.10;90.00;;;;;;5031969;28;20422;-72
2022/08/13 01:24:25;;;;;;;5.10;2.90;;;19.10;90.40;;;;;;5031465;28;20453;-72
2022/08/13 01:26:52;;;;;;;5.47;2.33;;;19.10;90.80;;;;;;5031933;28;20398;-72
2022/08/13 01:29:18;;;;;;;2.20;2.00;;;19.10;90.70;;;;;;5031941;28;20159;-72
2022/08/13 01:31:44;;;;;;;2.20;2.00;;;19.10;91.20;;;;;;5031758;28;20428;-72
2022/08/13 01:34:11;;;;;;;2.63;2.43;;;19.10;90.60;;;;;;5031865;28;20164;-73
2022/08/13 01:36:38;;;;;;;2.80;2.50;;;19.10;91.00;;;;;;5032592;28;20406;-72
2022/08/13 01:39:07;;;;;;;2.43;2.23;;;19.00;91.70;;;;;;5036436;28;20523;-71
2022/08/13 01:41:33;;;;;;;2.70;2.47;;;18.90;93.00;;;;;;5037037;28;20449;-72
2022/08/13 01:44:04;;;;;;;2.80;2.60;;;18.80;94.60;;;;;;5036713;28;20453;-72
2022/08/13 01:50:28;;;;;;;3.07;2.67;;;18.80;96.00;;;;;;5035543;28;20418;-72
2022/08/13 01:52:00;;;;;;;2.70;2.13;;;18.60;98.10;;;;;;5035579;28;20973;-72
2022/08/13 01:54:26;;;;;;;2.70;2.50;;;18.60;98.40;;;;;;5035536;28;20406;-72
2022/08/13 01:56:52;;;;;;;2.73;2.53;;;18.60;98.10;;;;;;5035622;28;20175;-72
2022/08/13 01:59:18;;;;;;;2.20;2.03;;;18.50;99.80;;;;;;5036113;28;20433;-72
2022/08/13 02:01:45;;;;;;;2.70;2.40;;;18.50;99.90;;;;;;5035585;28;20468;-72
2022/08/13 02:04:13;;;;;;;3.67;3.40;;;18.40;99.90;;;;;;5035384;28;20213;-72
2022/08/13 02:06:40;;;;;;;2.60;2.40;;;18.40;99.90;;;;;;5035317;28;20406;-72
2022/08/13 02:09:06;;;;;;;2.90;2.37;;;18.40;99.90;;;;;;5035484;28;20899;-72
2022/08/13 02:11:35;;;;;;;2.73;2.53;;;18.40;99.90;;;;;;5035339;28;20425;-72
2022/08/13 02:14:03;;;;;;;3.20;2.90;;;18.40;99.90;;;;;;5035106;28;20398;-72
2022/08/13 02:16:34;;;;;;;3.10;2.63;;;18.40;99.90;;;;;;5033683;28;20414;-72
2022/08/13 02:19:02;;;;;;;4.13;2.90;;;18.30;99.90;;;;;;5035263;28;20406;-71
2022/08/13 02:21:32;;;;;;;4.30;2.50;;;18.30;99.90;;;;;;5034991;28;20501;-72
2022/08/13 02:23:59;;;;;;;2.60;2.40;;;18.30;99.90;;;;;;5033925;28;20787;-72
2022/08/13 02:26:29;;;;;;;3.70;2.30;;;18.20;99.90;;;;;;5034842;28;20477;-71
2022/08/13 02:28:57;;;;;;;2.40;2.20;;;18.10;99.90;;;;;;5035001;28;20812;-71
2022/08/13 02:31:23;;;;;;;3.03;2.67;;;18.10;99.90;;;;;;5035046;28;20426;-71
2022/08/13 02:33:52;;;;;;;3.10;2.80;;;18.00;99.90;;;;;;5034917;28;20481;-71
2022/08/13 02:36:21;;;;;;;2.50;2.27;;;18.00;99.90;;;;;;5033397;28;20414;-71
2022/08/13 02:38:55;;;;;;;3.07;2.80;;;18.00;99.90;;;;;;5034807;28;20406;-71
2022/08/13 02:44:20;;;;;;;2.90;2.70;;;18.00;99.90;;;;;;5033630;28;20421;-70
2022/08/13 02:46:50;;;;;;;3.27;2.97;;;18.00;99.90;;;;;;5035197;28;20759;-71
2022/08/13 02:49:17;;;;;;;3.40;2.70;;;18.00;99.90;;;;;;5035184;28;20402;-71
2022/08/13 02:51:43;;;;;;;4.23;2.73;;;18.00;99.90;;;;;;5034917;28;20814;-71
2022/08/13 02:54:09;;;;;;;3.60;2.83;;;18.00;99.90;;;;;;5035261;28;20394;-71
2022/08/13 02:56:36;;;;;;;3.57;3.00;;;18.00;99.90;;;;;;5034897;28;20522;-71
2022/08/13 02:59:03;;;;;;;2.90;2.70;;;18.00;99.90;;;;;;5035015;28;20442;-71
2022/08/13 03:01:30;;;;;;;7.43;2.77;;;18.00;99.90;;;;;;5034877;28;20279;-71
2022/08/13 03:03:55;;;;;;;2.60;2.40;;;18.00;99.90;;;;;;5034870;28;20896;-71
2022/08/13 03:06:22;;;;;;;2.20;2.00;;;17.90;99.90;;;;;;5034651;28;20507;-71
2022/08/13 03:08:51;;;;;;;3.20;2.70;;;17.90;99.90;;;;;;5034550;28;20163;-71
2022/08/13 03:11:18;;;;;;;2.90;2.60;;;17.90;99.90;;;;;;5034843;28;20458;-71
2022/08/13 03:13:57;;;;;;;2.50;2.30;;;17.90;99.90;;;;;;5034847;28;20407;-71
2022/08/13 03:16:26;;;;;;;3.13;2.83;;;17.80;99.90;;;;;;5034019;28;20497;-71
2022/08/13 03:18:53;;;;;;;2.27;2.07;;;17.80;99.90;;;;;;5034248;28;20414;-71
2022/08/13 03:21:23;;;;;;;2.67;2.47;;;17.70;99.90;;;;;;5034525;28;20422;-71
2022/08/13 03:23:51;;;;;;;3.23;2.93;;;17.60;99.90;;;;;;5034450;28;20410;-71
2022/08/13 03:26:17;;;;;;;3.27;2.97;;;17.60;99.90;;;;;;5034027;28;20450;-71
2022/08/13 03:28:43;;;;;;;4.50;2.93;;;17.50;99.90;;;;;;5033229;28;20509;-71
2022/08/13 03:31:09;;;;;;;2.87;2.33;;;17.50;99.90;;;;;;5033706;28;20434;-71
2022/08/13 03:33:35;;;;;;;5.33;2.50;;;17.50;99.90;;;;;;5034228;28;20168;-71
2022/08/13 03:36:00;;;;;;;2.60;2.40;;;17.40;99.90;;;;;;5033570;28;20629;-71
2022/08/13 03:38:26;;;;;;;4.00;3.10;;;17.40;99.90;;;;;;5033730;28;20541;-71
2022/08/13 03:41:01;;;;;;;2.00;1.90;;;17.30;99.90;;;;;;5033564;28;20171;-71
2022/08/13 03:43:29;;;;;;;3.03;2.73;;;17.30;99.90;;;;;;5033775;28;20906;-70
2022/08/13 03:45:55;;;;;;;3.20;2.53;;;17.20;99.90;;;;;;5033194;28;20453;-71
2022/08/13 03:48:21;;;;;;;2.60;2.40;;;17.20;99.90;;;;;;5033652;28;20412;-71
2022/08/13 03:50:48;;;;;;;3.40;3.20;;;17.10;99.90;;;;;;5033608;28;20179;-71
2022/08/13 03:53:16;;;;;;;3.17;2.90;;;17.10;99.90;;;;;;5033912;28;20409;-71
2022/08/13 03:55:42;;;;;;;2.97;2.67;;;17.00;99.90;;;;;;5032230;28;20488;-71
2022/08/13 03:58:09;;;;;;;2.60;2.40;;;17.00;99.90;;;;;;5033700;28;20402;-71
2022/08/13 04:00:38;;;;;;;3.63;2.40;;;16.90;99.90;;;;;;5033020;28;20182;-71
2022/08/13 04:03:20;;;;;;;10.73;4.30;;;16.90;99.90;;;;;;5033492;28;21109;-71
2022/08/13 04:05:49;;;;;;;4.40;3.77;;;16.90;99.90;;;;;;5033050;28;20481;-71
2022/08/13 04:08:15;;;;;;;3.63;3.20;;;16.90;99.90;;;;;;5033362;28;20398;-71
2022/08/13 04:10:41;;;;;;;3.20;2.90;;;16.80;99.90;;;;;;5033347;28;20410;-71
2022/08/13 04:13:15;;;;;;;2.53;2.33;;;16.80;99.90;;;;;;5033263;28;20426;-71
2022/08/13 04:15:42;;;;;;;5.20;3.13;;;16.80;99.90;;;;;;5033000;28;20402;-71
2022/08/13 04:18:11;;;;;;;2.43;2.20;;;16.80;99.90;;;;;;5033380;28;20418;-71
2022/08/13 04:20:41;;;;;;;2.63;2.43;;;16.70;99.90;;;;;;5033123;28;20406;-71
2022/08/13 04:23:13;;;;;;;3.07;2.47;;;16.70;99.90;;;;;;5032889;28;20422;-71
2022/08/13 04:25:39;;;;;;;2.23;2.13;;;16.70;99.90;;;;;;5032471;28;20442;-71
2022/08/13 04:28:07;;;;;;;2.53;2.33;;;16.70;99.90;;;;;;5032802;28;20402;-71
2022/08/13 04:30:41;;;;;;;2.43;1.97;;;16.70;99.90;;;;;;5032899;28;20402;-71
2022/08/13 04:33:09;;;;;;;2.70;2.50;;;16.70;99.90;;;;;;5032847;28;20502;-71
2022/08/13 04:35:35;;;;;;;2.90;2.60;;;16.70;99.90;;;;;;5032425;28;20410;-70
2022/08/13 04:38:01;;;;;;;4.47;2.80;;;16.70;99.90;;;;;;5032755;28;20896;-71
2022/08/13 04:40:26;;;;;;;2.30;2.10;;;16.70;99.90;;;;;;5032583;28;20517;-71
2022/08/13 04:42:54;;;;;;;2.80;2.60;;;16.70;99.90;;;;;;5032553;28;20639;-71
2022/08/13 04:45:24;;;;;;;3.80;2.77;;;16.70;99.90;;;;;;5032218;28;20680;-72
2022/08/13 04:47:50;;;;;;;3.67;2.80;;;16.70;99.90;;;;;;5032476;28;20416;-71
2022/08/13 04:50:16;;;;;;;2.60;2.40;;;16.70;99.90;;;;;;5032493;28;20415;-71
2022/08/13 04:52:42;;;;;;;2.37;2.17;;;16.70;99.90;;;;;;5032304;28;20796;-71
2022/08/13 04:55:12;;;;;;;2.70;2.27;;;16.80;99.90;;;;;;5032018;28;20696;-70
2022/08/13 04:57:41;;;;;;;3.20;2.90;;;16.80;99.90;;;;;;5032285;28;20163;-71
2022/08/13 05:00:07;;;;;;;4.47;3.00;;;16.90;99.90;;;;;;5032397;28;21200;-70
2022/08/13 05:02:39;;;;;;;2.17;1.97;;;16.90;99.90;;;;;;5032243;28;20418;-71
2022/08/13 05:05:06;;;;;;;2.53;2.33;;;16.90;99.90;;;;;;5031925;28;20450;-70
2022/08/13 05:07:31;;;;;;;3.10;2.63;;;17.00;99.90;;;;;;5032228;28;20391;-70
2022/08/13 05:09:57;;;;;;;2.47;2.27;;;17.00;99.90;;;;;;5030688;28;20460;-72
2022/08/13 05:12:23;;;;;;;2.53;2.10;;;17.10;99.90;;;;;;5031182;28;20188;-72
2022/08/13 05:14:49;;;;;;;2.67;2.00;;;17.10;99.90;;;;;;5031966;28;20175;-71
2022/08/13 05:17:14;;;;;;;2.60;2.40;;;17.20;99.90;;;;;;5032081;28;20794;-71
2022/08/13 05:19:41;;;;;;;2.87;2.53;;;17.30;99.90;;;;;;5032115;28;20641;-71
2022/08/13 05:22:07;;;;;;;3.80;2.40;;;17.40;99.90;;;;;;5031940;28;20609;-71
2022/08/13 05:24:36;;;;;;;4.43;2.20;;;17.50;99.90;;;;;;5031728;28;20442;-71
2022/08/13 05:27:02;;;;;;;2.67;2.47;;;17.50;99.90;;;;;;5032287;28;20912;-71
2022/08/13 05:29:27;;;;;;;6.23;2.40;;;17.70;99.90;;;;;;5032100;28;20406;-71
2022/08/13 05:31:54;;;;;;;3.23;2.60;;;17.80;99.90;;;;;;5030755;28;20187;-71
2022/08/13 05:34:19;;;;;;;3.80;2.97;;;17.90;99.90;;;;;;5031658;28;20183;-71
2022/08/13 05:36:46;;;;;;;3.30;1.87;;;18.10;99.90;;;;;;5031961;28;20441;-71
2022/08/13 05:39:13;;;;;;;2.53;2.33;;;18.30;99.90;;;;;;5031719;28;20160;-71
2022/08/13 05:41:39;;;;;;;2.93;2.70;;;18.50;99.90;;;;;;5031869;28;20935;-71
2022/08/13 05:44:04;;;;;;;3.33;2.43;;;18.80;99.90;;;;;;5031987;28;20448;-71
2022/08/13 05:46:30;;;;;;;2.60;2.40;;;19.10;99.90;;;;;;5031470;28;20461;-71
2022/08/13 05:48:56;;;;;;;2.77;2.47;;;19.40;99.90;;;;;;5030408;28;20178;-71
2022/08/13 05:51:31;;;;;;;4.13;2.17;;;19.90;99.90;;;;;;5031758;28;20196;-71
2022/08/13 05:53:59;;;;;;;2.87;2.57;;;20.30;99.90;;;;;;5031037;28;20767;-71
2022/08/13 05:56:26;;;;;;;2.87;2.67;;;20.80;99.90;;;;;;5031841;28;20457;-71
2022/08/13 05:58:52;;;;;;;3.40;2.67;;;21.30;99.90;;;;;;5031853;28;20411;-71
2022/08/13 06:04:10;;;;;;;2.90;2.70;;;22.40;99.90;;;;;;5031867;28;20302;-71
2022/08/13 06:06:36;;;;;;;3.20;2.60;;;23.10;99.90;;;;;;5031516;28;20483;-72
2022/08/13 06:09:04;;;;;;;3.80;2.63;;;23.70;99.90;;;;;;5031618;28;20987;-72
2022/08/13 06:11:30;;;;;;;2.50;2.30;;;24.20;96.20;;;;;;5031571;28;20191;-72
2022/08/13 06:13:56;;;;;;;3.60;3.30;;;24.80;92.90;;;;;;5031455;28;20398;-72
2022/08/13 06:16:25;;;;;;;4.33;3.13;;;25.10;93.40;;;;;;5030100;28;20433;-71
2022/08/13 06:18:50;;;;;;;3.83;2.60;;;25.70;88.00;;;;;;5031431;28;20512;-72
2022/08/13 06:21:18;;;;;;;3.07;2.87;;;26.30;84.00;;;;;;5030161;28;20441;-72
2022/08/13 06:23:45;;;;;;;3.40;3.10;;;26.80;78.30;;;;;;5032718;28;20176;-72
2022/08/13 06:26:14;;;;;;;3.23;2.90;;;27.30;73.70;;;;;;5034883;28;20456;-71
2022/08/13 06:28:40;;;;;;;4.40;3.10;;;27.90;69.30;;;;;;5035168;28;20399;-72
2022/08/13 06:31:09;;;;;;;2.90;2.60;;;28.30;64.50;;;;;;5035004;28;20422;-72
2022/08/13 06:33:36;;;;;;;2.60;2.40;;;28.50;65.10;;;;;;5035085;28;20403;-72
2022/08/13 06:36:10;;;;;;;2.70;2.47;;;29.10;61.00;;;;;;5033252;28;20414;-72
2022/08/13 06:38:40;;;;;;;2.57;2.37;;;29.40;58.80;;;;;;5034636;28;20402;-73
2022/08/13 06:41:07;;;;;;;4.20;2.47;;;29.70;55.80;;;;;;5034734;28;20512;-72
2022/08/13 06:43:35;;;;;;;2.73;2.50;;;30.00;55.00;;;;;;5034921;28;20402;-73
2022/08/13 06:46:05;;;;;;;2.10;2.00;;;30.10;53.70;;;;;;5034365;28;20994;-72
2022/08/13 06:48:35;;;;;;;2.50;2.30;;;30.60;52.70;;;;;;5033461;28;20410;-72
2022/08/13 06:51:06;;;;;;;2.60;2.40;;;30.90;51.70;;;;;;5034451;28;20426;-72
2022/08/13 06:53:32;;;;;;;2.73;2.20;;;31.10;51.20;;;;;;5034710;28;20426;-73
2022/08/13 06:56:01;;;;;;;2.67;2.47;;;31.50;48.90;;;;;;5034332;28;20895;-72
2022/08/13 06:58:28;;;;;;;2.83;2.63;;;32.00;48.10;;;;;;5034538;28;20923;-73
2022/08/13 07:00:55;;;;;;;2.70;2.50;;;32.30;47.70;;;;;;5034340;28;20480;-72
2022/08/13 07:03:25;;;;;;;2.30;2.10;;;32.80;47.40;;;;;;5034380;28;20398;-72
2022/08/13 07:05:51;;;;;;;2.27;2.07;;;33.50;45.40;;;;;;5034161;28;20827;-73
2022/08/13 07:08:17;;;;;;;1.80;1.70;;;34.00;43.90;;;;;;5034049;28;20414;-73
2022/08/13 07:10:51;;;;;;;2.20;2.00;;;34.20;43.30;;;;;;5034227;28;20164;-72
2022/08/13 07:13:17;;;;;;;2.37;2.17;;;34.90;42.50;;;;;;5034307;28;20752;-73
2022/08/13 07:15:45;;;;;;;2.17;2.03;;;35.60;40.60;;;;;;5032704;28;20411;-73
2022/08/13 07:18:11;;;;;;;2.00;1.80;;;36.30;38.70;;;;;;5034354;28;20409;-73
2022/08/13 07:20:37;;;;;;;2.40;2.20;;;36.50;40.80;;;;;;5034110;28;20409;-73
2022/08/13 07:23:03;;;;;;;2.27;2.17;;;37.10;38.40;;;;;;5032705;28;20826;-73
2022/08/13 07:25:30;;;;;;;2.30;2.07;;;37.50;35.50;;;;;;5033458;28;20506;-73
2022/08/13 07:27:57;;;;;;;2.33;2.13;;;37.90;35.60;;;;;;5034074;28;20240;-73
2022/08/13 07:30:23;;;;;;;2.63;2.43;;;38.10;36.00;;;;;;5034262;28;20975;-73
2022/08/13 07:32:51;;;;;;;2.30;2.10;;;38.80;34.30;;;;;;5032281;28;20500;-73
2022/08/13 07:35:17;;;;;;;2.50;2.30;;;39.10;35.50;;;;;;5032093;28;20361;-73
2022/08/13 07:37:43;;;;;;;2.03;1.93;;;39.20;33.30;;;;;;5033804;28;20385;-73
2022/08/13 07:40:09;;;;;;;2.23;2.03;;;39.20;33.80;;;;;;5033614;28;20405;-73
2022/08/13 07:42:38;;;;;;;3.73;2.30;;;39.60;31.70;;;;;;5033180;28;20309;-73
2022/08/13 07:45:06;;;;;;;1.90;1.80;;;40.00;31.90;;;;;;5033448;28;20815;-71
2022/08/13 07:47:32;;;;;;;2.70;2.40;;;39.90;31.60;;;;;;5033723;28;20384;-71
2022/08/13 07:50:01;;;;;;;2.27;2.03;;;40.60;31.20;;;;;;5032333;28;20421;-73
2022/08/13 07:52:29;;;;;;;1.97;1.87;;;40.90;30.00;;;;;;5033157;28;20424;-73
2022/08/13 07:54:55;;;;;;;1.90;1.80;;;41.00;30.60;;;;;;5033226;28;20384;-73
2022/08/13 07:57:25;;;;;;;2.50;2.30;;;41.20;29.80;;;;;;5032016;28;20449;-73
2022/08/13 07:59:51;;;;;;;2.30;2.10;;;41.10;30.20;;;;;;5033487;28;20389;-73
2022/08/13 08:02:18;;;;;;;2.70;2.50;;;40.80;30.10;;;;;;5033358;28;20480;-73
2022/08/13 08:04:44;;;;;;;2.10;2.00;;;40.60;29.20;;;;;;5032997;28;20221;-73
2022/08/13 08:07:12;;;;;;;2.30;2.10;;;40.40;30.70;;;;;;5033250;28;20406;-73
2022/08/13 08:09:38;;;;;;;2.87;2.53;;;41.00;30.30;;;;;;5031940;28;20957;-73
2022/08/13 08:14:50;;;;;;;3.30;2.23;;;41.10;30.30;;;;;;5033172;28;20218;-72
2022/08/13 08:17:17;;;;;;;2.13;1.93;;;41.40;28.40;;;;;;5033023;28;20379;-72
2022/08/13 08:19:47;;;;;;;2.00;1.90;;;41.10;28.50;;;;;;5033077;28;20476;-72
2022/08/13 08:22:15;;;;;;;2.10;2.00;;;41.20;28.10;;;;;;5032896;28;20436;-72
2022/08/13 08:24:45;;;;;;;1.70;1.60;;;41.00;28.20;;;;;;5032641;28;20468;-72
2022/08/13 08:27:10;;;;;;;2.40;2.20;;;40.90;28.50;;;;;;5032909;28;20746;-73
2022/08/13 08:29:37;;;;;;;2.00;1.90;;;40.80;28.80;;;;;;5032898;28;20399;-72
2022/08/13 08:32:05;;;;;;;1.90;1.80;;;40.80;28.20;;;;;;5032696;28;20270;-72
2022/08/13 08:34:31;;;;;;;2.90;1.90;;;41.40;29.40;;;;;;5032448;28;20804;-73
2022/08/13 08:36:57;;;;;;;2.10;2.00;;;42.10;31.30;;;;;;5032701;28;20493;-73
2022/08/13 08:44:49;;;;;;;2.23;2.03;;;44.20;26.60;;;;;;5032374;28;20765;-73
2022/08/13 08:47:14;;;;;;;2.43;2.23;;;45.00;27.60;;;;;;5032383;28;21050;-73
2022/08/13 08:49:43;;;;;;;2.23;2.10;;;45.70;27.20;;;;;;5032538;28;20410;-73
2022/08/13 08:52:09;;;;;;;3.20;2.37;;;46.50;26.10;;;;;;5032327;28;20718;-73
2022/08/13 08:54:36;;;;;;;2.20;2.10;;;46.70;26.60;;;;;;5030878;28;20422;-73
2022/08/13 08:57:04;;;;;;;2.50;2.40;;;47.50;25.10;;;;;;5032149;28;20171;-73
2022/08/13 08:59:41;;;;;;;2.93;2.70;;;47.90;24.10;;;;;;5032326;28;20415;-73
2022/08/13 09:02:18;;;;;;;2.30;2.20;;;48.10;24.70;;;;;;5031991;28;20454;-73
2022/08/13 09:04:54;;;;;;;2.73;2.50;;;48.50;24.50;;;;;;5031917;28;20445;-73
2022/08/13 09:07:23;;;;;;;2.37;2.20;;;48.30;23.30;;;;;;5032277;28;20934;-73
2022/08/13 09:09:59;;;;;;;2.80;2.60;;;48.50;24.40;;;;;;5032219;28;20418;-73
2022/08/13 09:12:26;;;;;;;2.50;2.40;;;48.40;23.60;;;;;;5032195;28;20424;-73
2022/08/13 09:14:52;;;;;;;2.83;2.60;;;47.70;23.60;;;;;;5031458;28;20783;-73
2022/08/13 09:17:19;;;;;;;2.23;2.13;;;48.10;23.50;;;;;;5031832;28;20434;-73
2022/08/13 09:19:44;;;;;;;2.57;2.47;;;48.20;24.50;;;;;;5032078;28;20406;-73
2022/08/13 09:22:14;;;;;;;2.80;2.60;;;48.90;23.80;;;;;;5032004;28;20400;-73
2022/08/13 09:24:45;;;;;;;2.60;2.40;;;49.00;24.60;;;;;;5030418;28;20199;-73
2022/08/13 09:27:15;;;;;;;3.43;3.23;;;49.40;24.20;;;;;;5032084;28;20489;-73
2022/08/13 09:29:42;;;;;;;2.40;2.30;;;49.60;23.90;;;;;;5032181;28;20433;-73
2022/08/13 09:32:09;;;;;;;2.90;2.70;;;49.80;23.30;;;;;;5031572;28;20429;-73
2022/08/13 09:34:36;;;;;;;3.70;2.80;;;50.50;23.90;;;;;;5030031;28;20414;-73
2022/08/13 09:37:02;;;;;;;3.00;2.80;;;51.10;23.10;;;;;;5031920;28;20406;-73
2022/08/13 09:39:49;;;;;;;2.77;2.67;;;51.00;22.60;;;;;;5031906;28;20402;-73
2022/08/13 09:42:23;;;;;;;3.57;3.27;;;51.30;22.20;;;;;;5031696;28;20477;-73
2022/08/13 09:44:51;;;;;;;2.97;2.77;;;51.30;22.10;;;;;;5031518;28;20457;-73
2022/08/13 09:47:17;;;;;;;3.00;2.80;;;51.40;22.10;;;;;;5031794;28;20464;-73
2022/08/13 09:49:46;;;;;;;3.10;2.90;;;51.30;21.40;;;;;;5030515;28;20413;-72
2022/08/13 09:52:11;;;;;;;3.33;3.00;;;50.80;21.50;;;;;;5031628;28;20199;-73
2022/08/13 09:54:41;;;;;;;2.70;2.60;;;49.70;22.20;;;;;;5031445;28;20417;-73
2022/08/13 09:57:07;;;;;;;2.80;2.60;;;49.00;22.60;;;;;;5031573;28;20288;-73
2022/08/13 09:59:33;;;;;;;2.43;2.33;;;49.30;23.70;;;;;;5035715;28;20557;-73
2022/08/13 10:02:02;;;;;;;2.57;2.47;;;49.30;21.90;;;;;;5035494;28;20433;-73
2022/08/13 10:04:29;;;;;;;2.93;2.80;;;49.60;22.90;;;;;;5035161;28;20429;-73
2022/08/13 10:06:57;;;;;;;2.63;2.47;;;50.10;22.20;;;;;;5034268;28;20804;-73
2022/08/13 10:09:25;;;;;;;2.70;2.50;;;50.70;22.80;;;;;;5034116;28;20430;-73
2022/08/13 10:11:52;;;;;;;3.43;3.23;;;51.20;22.50;;;;;;5035310;28;20434;-73
2022/08/13 10:14:17;;;;;;;2.60;2.50;;;51.80;21.10;;;;;;5034082;28;20402;-73
2022/08/13 10:16:43;;;;;;;2.97;2.77;;;51.20;21.50;;;;;;5032410;28;20448;-73
2022/08/13 10:19:08;;;;;;;2.87;2.67;;;51.00;23.20;;;;;;5034510;28;20704;-73
2022/08/13 10:21:34;;;;;;;2.60;2.50;;;51.20;21.20;;;;;;5035737;28;20199;-73
2022/08/13 10:23:59;;;;;;;2.90;2.80;;;51.60;22.30;;;;;;5034810;28;20564;-73
2022/08/13 10:26:25;;;;;;;2.80;2.70;;;51.60;21.70;;;;;;5034606;28;20211;-73
2022/08/13 10:28:51;;;;;;;3.50;3.30;;;51.40;21.90;;;;;;5034904;28;20178;-73
2022/08/13 10:31:17;;;;;;;3.30;3.10;;;52.20;21.80;;;;;;5030393;28;20285;-73
2022/08/13 10:33:42;;;;;;;3.60;3.40;;;52.30;20.90;;;;;;5025526;28;20194;-73
2022/08/13 10:36:10;;;;;;;3.40;3.20;;;52.20;21.20;;;;;;5033703;28;20437;-73
2022/08/13 10:38:35;;;;;;;2.87;2.77;;;52.50;21.30;;;;;;5026683;28;20183;-73
2022/08/13 10:41:07;;;;;;;3.10;3.00;;;53.30;21.80;;;;;;5034848;28;20480;-73
2022/08/13 10:43:39;;;;;;;4.17;3.97;;;53.80;21.80;;;;;;5032239;28;20543;-73
2022/08/13 10:46:11;;;;;;;3.50;3.40;;;54.30;21.40;;;;;;5021317;28;20516;-73
2022/08/13 10:48:37;;;;;;;4.37;4.17;;;55.10;21.30;;;;;;5022201;28;20461;-73
2022/08/13 10:51:04;;;;;;;13.00;5.03;;;55.40;20.70;;;;;;5034011;28;20941;-73
2022/08/13 10:56:13;;;;;;;4.47;4.27;;;55.90;20.40;;;;;;5034440;28;20401;-73
2022/08/13 10:58:40;;;;;;;4.13;3.93;;;55.70;19.90;;;;;;5034401;28;20406;-73
2022/08/13 11:01:06;;;;;;;4.10;3.90;;;55.50;19.90;;;;;;5034433;28;20322;-74
2022/08/13 11:03:33;;;;;;;4.00;3.80;;;55.90;20.70;;;;;;5034407;28;20406;-73
2022/08/13 11:06:00;;;;;;;3.20;3.10;;;55.60;19.30;;;;;;5032837;28;20462;-73
2022/08/13 11:08:37;;;;;;;3.30;3.20;;;55.00;20.80;;;;;;5033941;28;20463;-73
2022/08/13 11:11:04;;;;;;;4.07;3.87;;;55.10;20.40;;;;;;5033754;28;20807;-73
2022/08/13 11:13:33;;;;;;;4.17;4.00;;;55.60;20.90;;;;;;5032891;28;20480;-73
2022/08/13 11:16:00;;;;;;;5.47;5.07;;;56.00;20.40;;;;;;5033991;28;20941;-73
2022/08/13 11:18:27;;;;;;;4.30;4.10;;;56.10;18.90;;;;;;5034211;28;20410;-74
2022/08/13 11:21:02;;;;;;;4.07;3.87;;;56.10;19.90;;;;;;5034131;28;20406;-73
2022/08/13 11:23:29;;;;;;;4.10;3.90;;;56.00;20.30;;;;;;5034148;28;20401;-72
2022/08/13 11:25:54;;;;;;;4.00;3.80;;;56.20;18.80;;;;;;5033793;28;20453;-74
2022/08/13 11:28:20;;;;;;;4.53;4.20;;;55.50;20.10;;;;;;5034090;28;20412;-73
2022/08/13 11:30:48;;;;;;;4.90;4.70;;;55.60;19.30;;;;;;5033769;28;20175;-73
2022/08/13 11:33:13;;;;;;;5.00;4.80;;;56.40;20.10;;;;;;5032236;28;20163;-73
2022/08/13 11:35:42;;;;;;;4.60;4.40;;;57.00;20.20;;;;;;5033813;28;20417;-73
2022/08/13 11:38:09;;;;;;;4.27;4.07;;;56.90;19.00;;;;;;5032583;28;20179;-73
2022/08/13 11:40:36;;;;;;;4.57;4.27;;;56.10;19.30;;;;;;5033719;28;20402;-73
2022/08/13 11:43:02;;;;;;;3.90;3.70;;;55.70;19.10;;;;;;5033066;28;20421;-73
2022/08/13 11:45:27;;;;;;;4.23;4.03;;;55.20;19.70;;;;;;5033280;28;20467;-73
2022/08/13 11:47:54;;;;;;;5.03;4.73;;;55.20;20.70;;;;;;5033425;28;20175;-73
2022/08/13 11:50:19;;;;;;;4.30;4.10;;;55.40;19.30;;;;;;5033569;28;20237;-73
2022/08/13 11:52:45;;;;;;;3.60;3.50;;;55.40;18.70;;;;;;5033499;28;21108;-73
2022/08/13 11:55:10;;;;;;;4.20;4.00;;;54.80;19.10;;;;;;5033756;28;20202;-73
2022/08/13 11:57:36;;;;;;;4.30;4.10;;;55.20;19.30;;;;;;5033465;28;20546;-73
2022/08/13 12:00:05;;;;;;;4.67;4.47;;;55.30;19.80;;;;;;5033478;28;20171;-73
2022/08/13 12:02:31;;;;;;;4.00;3.80;;;55.60;19.40;;;;;;5032017;28;20191;-74
2022/08/13 12:04:56;;;;;;;4.60;4.40;;;56.20;19.20;;;;;;5032975;28;20796;-73
2022/08/13 12:07:26;;;;;;;4.33;4.13;;;56.30;19.30;;;;;;5032974;28;20408;-73
2022/08/13 12:09:51;;;;;;;4.87;4.57;;;56.20;18.10;;;;;;5031972;28;20163;-73
2022/08/13 12:12:17;;;;;;;3.80;3.60;;;55.20;19.50;;;;;;5032975;28;20424;-73
2022/08/13 12:14:42;;;;;;;3.90;3.80;;;55.20;19.20;;;;;;5032797;28;20193;-74
2022/08/13 12:17:08;;;;;;;4.10;3.90;;;55.20;19.30;;;;;;5031842;28;20182;-74
2022/08/13 12:19:34;;;;;;;3.90;3.70;;;55.40;20.10;;;;;;5033019;28;20645;-72
2022/08/13 12:22:00;;;;;;;4.20;4.00;;;55.20;18.30;;;;;;5031317;28;20191;-73
2022/08/13 12:24:29;;;;;;;4.20;4.00;;;55.20;19.00;;;;;;5032640;28;20448;-73
2022/08/13 12:26:54;;;;;;;3.97;3.77;;;55.00;18.60;;;;;;5033148;28;20934;-73
2022/08/13 12:29:20;;;;;;;4.00;3.70;;;54.20;19.90;;;;;;5032902;28;20406;-73
2022/08/13 12:31:45;;;;;;;4.00;3.80;;;54.20;19.90;;;;;;5033025;28;20270;-73
2022/08/13 12:34:11;;;;;;;4.03;3.83;;;54.10;20.10;;;;;;5032773;28;20163;-74
2022/08/13 12:36:36;;;;;;;3.80;3.60;;;54.40;19.50;;;;;;5031360;28;20221;-73
2022/08/13 12:39:03;;;;;;;3.10;3.00;;;54.30;19.00;;;;;;5032775;28;20225;-73
2022/08/13 12:41:29;;;;;;;3.40;3.20;;;54.50;19.50;;;;;;5032599;28;20195;-73
2022/08/13 12:43:55;;;;;;;3.10;2.90;;;54.10;18.80;;;;;;5032628;28;20894;-73
2022/08/13 12:46:20;;;;;;;6.13;5.77;;;53.40;18.70;;;;;;5031011;28;20506;-73
2022/08/13 12:48:46;;;;;;;3.60;3.30;;;53.20;20.30;;;;;;5032498;28;20253;-72
2022/08/13 12:51:11;;;;;;;3.27;3.00;;;52.90;19.00;;;;;;5032432;28;20284;-73
2022/08/13 12:53:37;;;;;;;7.43;3.30;;;51.50;18.90;;;;;;5032489;28;20196;-72
2022/08/13 12:56:03;;;;;;;2.90;2.70;;;51.50;19.30;;;;;;5031882;28;20198;-73
2022/08/13 12:58:28;;;;;;;2.60;2.50;;;51.40;19.80;;;;;;5032619;28;20168;-73
2022/08/13 13:00:56;;;;;;;2.97;2.80;;;51.30;19.70;;;;;;5032252;28;20175;-72
2022/08/13 13:03:22;;;;;;;2.47;2.37;;;51.20;19.30;;;;;;5032295;28;20160;-73
2022/08/13 13:05:50;;;;;;;6.13;2.43;;;50.90;20.70;;;;;;5031970;28;20504;-73
2022/08/13 13:08:21;;;;;;;2.20;2.10;;;50.70;20.10;;;;;;5032089;28;20402;-73
2022/08/13 13:10:48;;;;;;;3.20;2.80;;;50.90;20.30;;;;;;5032092;28;20402;-72